Lossiemouth, United Kingdom
Current Conditions -  °F | °C
As of 8:50 AM on Thursday 23 Oct 2014 (Local Time) from EGQS Reporting Station
Broken Clouds Broken Clouds  
Wind Chill: 50°   Ceiling: 30000
Heat Index: 50°   Visibility: 6mi
Dew Point: 46°   Wind: 6mph
Humidity: 87%   Direction: 200°SSW
Pressure: 29.65"   Gusts: NA
Location:  57.72°N, 3.28°W
Report Text: EGQS 230750Z 20005KT 9999 FEW030 SCT045 BKN300 10/08 Q1004 BLU NOSIG
Loading
Personal Weather Stations






























Interactive Weather Map
Tropical Storm Tracking
New forecast layout! Learn more

10-Day Weather Forecast

Advertisements
Track Severe Weather on mobile